Time;durP1;ratioP1;P1;durP2;ratioP2;P2;SDS_P1;SDS_P2;PMS_P1;PMS_P2;Temp;Humidity;BMP_temperature;BMP_pressure;BME280_temperature;BME280_humidity;BME280_pressure;Samples;Min_cycle;Max_cycle;Signal;HPM_P1;HPM_P2
2022/10/31 00:00:31;;;;;;;;;;;;;;;19.00;38.32;99009.19;4989617;28;19918;-84
2022/10/31 00:02:56;;;;;;;;;;;;;;;18.98;38.34;99004.06;4974554;28;20373;-84
2022/10/31 00:05:22;;;;;;;;;;;;;;;18.98;38.35;99004.06;4974616;28;19941;-84
2022/10/31 00:07:51;;;;;;;;;;;;;;;19.01;38.36;99002.91;4973592;28;20301;-82
2022/10/31 00:10:16;;;;;;;;;;;;;;;19.02;38.25;99001.09;4974700;28;19941;-82
2022/10/31 00:12:41;;;;;;;;;;;;;;;19.03;38.21;98997.47;4974466;28;20382;-82
2022/10/31 00:15:08;;;;;;;;;;;;;;;19.04;38.17;99012.31;4989634;28;19939;-83
2022/10/31 00:17:36;;;;;;;;;;;;;;;19.03;38.11;99016.81;4989360;28;19941;-82
2022/10/31 00:20:01;;;;;;;;;;;;;;;19.04;38.17;99007.88;4974547;28;19924;-82
2022/10/31 00:22:26;;;;;;;;;;;;;;;19.03;38.04;99011.50;4973236;28;19922;-82
2022/10/31 00:24:52;;;;;;;;;;;;;;;19.03;37.94;99016.81;4972698;28;19973;-82
2022/10/31 00:27:18;;;;;;;;;;;;;;;19.02;37.94;99015.13;4974877;28;19976;-82
2022/10/31 00:29:43;;;;;;;;;;;;;;;19.00;37.93;99011.84;4989305;28;19918;-83
2022/10/31 00:32:09;;;;;;;;;;;;;;;19.00;37.81;99019.78;4973363;28;20434;-83
2022/10/31 00:34:34;;;;;;;;;;;;;;;18.98;37.82;99016.47;4974095;28;19953;-83
2022/10/31 00:36:59;;;;;;;;;;;;;;;18.97;37.74;99012.16;4974065;28;19932;-83
2022/10/31 00:39:25;;;;;;;;;;;;;;;18.97;37.87;99014.81;4974147;28;20013;-83
2022/10/31 00:41:50;;;;;;;;;;;;;;;18.97;37.78;99012.16;4957010;28;19924;-83
2022/10/31 00:44:15;;;;;;;;;;;;;;;18.96;37.63;99013.16;4974574;28;19965;-83
2022/10/31 00:46:40;;;;;;;;;;;;;;;18.95;37.77;99012.31;4974162;28;19940;-83
2022/10/31 00:49:06;;;;;;;;;;;;;;;18.94;37.90;99010.69;4953044;29;19926;-84
2022/10/31 00:51:31;;;;;;;;;;;;;;;18.92;37.90;99003.91;4954796;29;19927;-84
2022/10/31 00:53:56;;;;;;;;;;;;;;;18.92;37.92;99003.91;4937739;29;19923;-83
2022/10/31 00:56:25;;;;;;;;;;;;;;;18.91;38.00;98999.59;4954580;29;19919;-83
2022/10/31 00:58:50;;;;;;;;;;;;;;;18.88;37.99;99006.06;4937615;29;20394;-83
2022/10/31 01:01:15;;;;;;;;;;;;;;;18.88;38.02;99003.41;4937433;29;20017;-83
2022/10/31 01:03:41;;;;;;;;;;;;;;;18.88;37.96;99013.16;4954079;29;19918;-84
2022/10/31 01:06:08;;;;;;;;;;;;;;;18.88;38.03;99006.06;4953784;29;19954;-83
2022/10/31 01:08:33;;;;;;;;;;;;;;;18.87;38.07;99014.97;4955500;29;19919;-82
2022/10/31 01:10:59;;;;;;;;;;;;;;;18.86;38.12;99015.13;4945686;29;19943;-82
2022/10/31 01:13:25;;;;;;;;;;;;;;;18.85;38.10;99018.75;4940562;29;19922;-82
2022/10/31 01:15:54;;;;;;;;;;;;;;;18.85;38.17;99018.75;4954689;29;20297;-83
2022/10/31 01:18:19;;;;;;;;;;;;;;;18.83;38.11;99021.53;4955265;29;19934;-83
2022/10/31 01:20:45;;;;;;;;;;;;;;;18.80;38.15;99017.41;4937393;29;19923;-82
2022/10/31 01:23:10;;;;;;;;;;;;;;;18.80;38.30;99019.22;4954856;29;19919;-87
2022/10/31 01:25:35;;;;;;;;;;;;;;;18.80;38.21;99021.84;4938097;29;19925;-86
2022/10/31 01:28:01;;;;;;;;;;;;;;;18.78;38.24;99010.63;4937530;29;20306;-86
2022/10/31 01:30:26;;;;;;;;;;;;;;;18.77;38.25;99017.75;4955293;29;20389;-85
2022/10/31 01:32:53;;;;;;;;;;;;;;;18.78;38.17;99014.09;4954596;29;19923;-86
2022/10/31 01:35:18;;;;;;;;;;;;;;;18.78;38.28;99026.50;4936911;29;20032;-85
2022/10/31 01:37:43;;;;;;;;;;;;;;;18.79;38.24;99030.81;4937763;29;20407;-86
2022/10/31 01:40:09;;;;;;;;;;;;;;;18.79;38.14;99021.03;4937269;29;20001;-85
2022/10/31 01:42:34;;;;;;;;;;;;;;;18.80;38.09;99025.34;4955077;29;19925;-85
2022/10/31 01:45:00;;;;;;;;;;;;;;;18.79;38.11;99028.97;4954984;29;20342;-85
2022/10/31 01:47:39;;;;;;;;;;;;;;;18.78;38.10;99029.97;4937981;29;19919;-85
2022/10/31 01:50:08;;;;;;;;;;;;;;;18.78;38.17;99032.59;4937919;29;19919;-86
2022/10/31 01:52:38;;;;;;;;;;;;;;;18.78;38.23;99035.25;4937628;29;19923;-86
2022/10/31 01:55:31;;;;;;;;;;;;;;;18.78;38.34;99035.25;4937363;29;19930;-86
2022/10/31 01:58:02;;;;;;;;;;;;;;;18.77;38.46;99030.13;4950487;29;19954;-85
2022/10/31 02:00:27;;;;;;;;;;;;;;;18.78;38.52;99034.44;4954635;29;19923;-85
2022/10/31 02:02:55;;;;;;;;;;;;;;;18.76;38.51;99028.47;4937212;29;19929;-85
2022/10/31 02:05:23;;;;;;;;;;;;;;;18.75;38.76;99029.47;4954096;29;20346;-84
2022/10/31 02:08:07;;;;;;;;;;;;;;;18.73;38.69;99026.97;4954132;29;19919;-85
2022/10/31 02:10:32;;;;;;;;;;;;;;;18.72;38.57;99037.72;4954201;29;19922;-85
2022/10/31 02:12:58;;;;;;;;;;;;;;;18.72;38.70;99033.28;4952754;29;20428;-84
2022/10/31 02:15:23;;;;;;;;;;;;;;;18.69;38.80;99032.75;4939689;29;19919;-86
2022/10/31 02:17:50;;;;;;;;;;;;;;;18.67;38.87;99032.91;4957520;28;19918;-84
2022/10/31 02:20:22;;;;;;;;;;;;;;;18.66;38.88;99038.38;4956587;28;19982;-84
2022/10/31 02:22:59;;;;;;;;;;;;;;;18.65;39.01;99034.91;4940537;29;20018;-85
2022/10/31 02:25:43;;;;;;;;;;;;;;;18.65;38.93;99044.66;4940237;29;19943;-85
2022/10/31 02:28:28;;;;;;;;;;;;;;;18.63;38.90;99035.06;4957418;28;20009;-85
2022/10/31 02:31:13;;;;;;;;;;;;;;;18.62;39.10;99035.22;4957293;29;20412;-85
2022/10/31 02:33:41;;;;;;;;;;;;;;;18.60;39.07;99035.38;4972432;28;19918;-86
2022/10/31 02:36:15;;;;;;;;;;;;;;;18.58;38.97;99034.72;4953856;29;19922;-86
2022/10/31 02:38:57;;;;;;;;;;;;;;;18.56;39.04;99031.41;4956650;29;19923;-85
2022/10/31 02:41:25;;;;;;;;;;;;;;;18.55;39.02;99035.03;4956431;29;19923;-84
2022/10/31 02:43:57;;;;;;;;;;;;;;;18.55;39.06;99039.47;4957793;29;19973;-84
2022/10/31 02:46:28;;;;;;;;;;;;;;;18.54;39.20;99043.94;4972093;28;19918;-84
2022/10/31 02:48:54;;;;;;;;;;;;;;;18.52;39.22;99048.59;4957500;28;19956;-85
2022/10/31 02:51:20;;;;;;;;;;;;;;;18.51;39.27;99041.63;4956206;29;19918;-84
2022/10/31 02:53:45;;;;;;;;;;;;;;;18.51;39.16;99048.75;4956242;29;19920;-85
2022/10/31 02:56:16;;;;;;;;;;;;;;;18.50;39.31;99053.22;4956205;29;20403;-84
2022/10/31 02:58:46;;;;;;;;;;;;;;;18.53;39.30;99058.19;4956060;29;19919;-87
2022/10/31 03:01:30;;;;;;;;;;;;;;;18.51;39.38;99054.03;4956168;29;19961;-86
2022/10/31 03:04:03;;;;;;;;;;;;;;;18.52;39.39;99056.50;4972085;28;19919;-86
2022/10/31 03:06:47;;;;;;;;;;;;;;;18.51;39.36;99061.97;4957152;28;19919;-85
2022/10/31 03:09:31;;;;;;;;;;;;;;;18.50;39.25;99057.66;4971387;28;20344;-86
2022/10/31 03:12:02;;;;;;;;;;;;;;;18.50;39.27;99062.94;4957141;29;19922;-85
2022/10/31 03:14:33;;;;;;;;;;;;;;;18.50;39.36;99066.44;4957051;28;19930;-85
2022/10/31 03:16:59;;;;;;;;;;;;;;;18.50;39.35;99068.22;4955820;29;19922;-85
2022/10/31 03:19:45;;;;;;;;;;;;;;;18.50;39.37;99066.44;4957366;28;19964;-86
2022/10/31 03:22:13;;;;;;;;;;;;;;;18.49;39.42;99067.41;4955243;29;19926;-85
2022/10/31 03:24:38;;;;;;;;;;;;;;;18.49;39.39;99063.94;4955635;29;19926;-86
2022/10/31 03:27:05;;;;;;;;;;;;;;;18.48;39.26;99057.81;4954309;28;20005;-85
2022/10/31 03:29:32;;;;;;;;;;;;;;;18.49;39.35;99064.75;4955040;29;19997;-86
2022/10/31 03:31:58;;;;;;;;;;;;;;;18.50;39.20;99062.94;4954452;29;20469;-85
2022/10/31 03:34:23;;;;;;;;;;;;;;;18.51;39.18;99061.97;4956218;28;19918;-85
2022/10/31 03:36:49;;;;;;;;;;;;;;;18.50;39.32;99069.06;4970618;28;20374;-84
2022/10/31 03:39:16;;;;;;;;;;;;;;;18.50;39.29;99069.06;4955457;29;20067;-84
2022/10/31 03:41:42;;;;;;;;;;;;;;;18.49;39.39;99067.41;4956052;28;19926;-86
2022/10/31 03:44:08;;;;;;;;;;;;;;;18.49;39.43;99070.06;4955278;29;20275;-85
2022/10/31 03:46:34;;;;;;;;;;;;;;;18.50;39.46;99062.94;4954762;29;19918;-86
2022/10/31 03:48:59;;;;;;;;;;;;;;;18.50;39.49;99057.66;4954757;29;19918;-85
2022/10/31 03:51:26;;;;;;;;;;;;;;;18.50;39.40;99071.72;4954714;29;20009;-86
2022/10/31 03:53:51;;;;;;;;;;;;;;;18.52;39.26;99063.63;4955279;29;19919;-86
2022/10/31 03:56:20;;;;;;;;;;;;;;;18.52;39.11;99080.31;4976568;28;20432;-87
2022/10/31 03:58:47;;;;;;;;;;;;;;;18.54;38.92;99075.69;4963026;29;19919;-86
2022/10/31 04:01:14;;;;;;;;;;;;;;;18.53;38.99;99073.19;4962589;29;20290;-86
2022/10/31 04:03:40;;;;;;;;;;;;;;;18.54;38.99;99074.84;4956952;28;19926;-85
2022/10/31 04:06:06;;;;;;;;;;;;;;;18.54;39.01;99069.56;4957132;29;19918;-86
2022/10/31 04:08:32;;;;;;;;;;;;;;;18.54;39.11;99072.22;4955389;29;19918;-83
2022/10/31 04:10:58;;;;;;;;;;;;;;;18.54;39.06;99077.50;4955738;28;19966;-86
2022/10/31 04:13:25;;;;;;;;;;;;;;;18.55;39.37;99076.50;4954508;29;20433;-85
2022/10/31 04:15:52;;;;;;;;;;;;;;;18.53;39.47;99074.03;4954420;29;19922;-86
2022/10/31 04:18:18;;;;;;;;;;;;;;;18.53;39.59;99067.91;4953872;29;19922;-87
2022/10/31 04:20:43;;;;;;;;;;;;;;;18.52;39.61;99080.31;4953101;29;20024;-86
2022/10/31 04:23:36;;;;;;;;;;;;;;;18.53;39.66;99081.97;4954639;29;19918;-87
2022/10/31 04:26:02;;;;;;;;;;;;;;;18.52;39.70;99090.88;4953103;28;19953;-89
2022/10/31 04:28:30;;;;;;;;;;;;;;;18.53;39.66;99083.75;4957038;29;19922;-90
2022/10/31 04:30:55;;;;;;;;;;;;;;;18.52;39.57;99085.59;4954834;29;20324;-88
2022/10/31 04:33:20;;;;;;;;;;;;;;;18.53;39.66;99100.47;4955141;29;20069;-88
2022/10/31 04:35:46;;;;;;;;;;;;;;;18.54;39.69;99101.28;4953431;29;20313;-79
2022/10/31 04:38:11;;;;;;;;;;;;;;;18.55;39.71;99105.56;4954958;28;19926;-89
2022/10/31 04:40:36;;;;;;;;;;;;;;;18.55;39.73;99102.94;4956495;29;20005;-89
2022/10/31 04:43:02;;;;;;;;;;;;;;;18.56;40.51;99105.41;4954428;29;19922;-79
2022/10/31 04:45:28;;;;;;;;;;;;;;;18.76;49.43;99106.00;4963976;28;19959;-86
2022/10/31 04:47:54;;;;;;;;;;;;;;;18.80;46.52;99111.78;4963417;28;20354;-76
2022/10/31 04:50:19;;;;;;;;;;;;;;;19.07;51.30;99120.47;4964117;28;20380;-72
2022/10/31 04:52:45;;;;;;;;;;;;;;;19.36;49.93;99119.22;4963788;28;19918;-78
2022/10/31 04:55:10;;;;;;;;;;;;;;;19.55;49.14;99121.53;4963362;28;20031;-79
2022/10/31 04:57:46;;;;;;;;;;;;;;;19.69;48.62;99131.44;4961856;28;19946;-73
2022/10/31 05:00:12;;;;;;;;;;;;;;;19.79;48.31;99130.50;4961770;28;20401;-72
2022/10/31 05:02:47;;;;;;;;;;;;;;;19.71;47.90;99141.88;4962891;28;19928;-73
2022/10/31 05:05:13;;;;;;;;;;;;;;;19.62;45.98;99143.69;4962565;28;19977;-73
2022/10/31 05:07:40;;;;;;;;;;;;;;;19.53;45.40;99150.81;4958056;28;19919;-73
2022/10/31 05:10:05;;;;;;;;;;;;;;;19.45;44.93;99149.97;4961632;28;20427;-72
2022/10/31 05:12:31;;;;;;;;;;;;;;;19.36;44.34;99157.09;4945248;28;20017;-72
2022/10/31 05:14:56;;;;;;;;;;;;;;;19.29;44.15;99164.00;4961621;28;20298;-74
2022/10/31 05:17:22;;;;;;;;;;;;;;;19.23;43.64;99164.66;4963541;28;20405;-83
2022/10/31 05:19:49;;;;;;;;;;;;;;;19.15;43.03;99162.84;4961298;28;19918;-82
2022/10/31 05:22:15;;;;;;;;;;;;;;;19.09;42.86;99169.59;4960812;28;19918;-84
2022/10/31 05:24:40;;;;;;;;;;;;;;;19.06;42.71;99175.22;4979304;28;19918;-83
2022/10/31 05:27:06;;;;;;;;;;;;;;;19.01;42.47;99172.22;4965247;28;19925;-83
2022/10/31 05:29:33;;;;;;;;;;;;;;;18.99;42.29;99174.19;4964487;28;19954;-84
2022/10/31 05:31:59;;;;;;;;;;;;;;;18.97;42.06;99178.81;4965020;28;19918;-84
2022/10/31 05:34:27;;;;;;;;;;;;;;;18.98;41.96;99177.84;4966221;28;19918;-83
2022/10/31 05:36:52;;;;;;;;;;;;;;;18.98;41.80;99172.56;4979955;28;19926;-83
2022/10/31 05:39:17;;;;;;;;;;;;;;;19.00;41.51;99185.63;4960599;28;19993;-83
2022/10/31 05:41:43;;;;;;;;;;;;;;;19.04;41.35;99184.28;4964811;28;19985;-82
2022/10/31 05:44:08;;;;;;;;;;;;;;;19.06;41.41;99184.97;4964930;28;19926;-82
2022/10/31 05:46:33;;;;;;;;;;;;;;;19.12;41.14;99194.94;4964223;28;19969;-82
2022/10/31 05:48:59;;;;;;;;;;;;;;;19.20;40.97;99191.44;4956176;28;20005;-83
2022/10/31 05:51:24;;;;;;;;;;;;;;;19.28;40.71;99192.31;4964406;28;19918;-81
2022/10/31 05:53:50;;;;;;;;;;;;;;;19.38;40.54;99192.16;4965508;28;19926;-80
2022/10/31 05:56:17;;;;;;;;;;;;;;;19.65;47.09;99206.09;4967383;28;19918;-76
2022/10/31 05:58:42;;;;;;;;;;;;;;;19.88;44.83;99198.38;4967596;28;19922;-79
2022/10/31 06:01:08;;;;;;;;;;;;;;;20.03;41.71;99196.69;4967839;28;19918;-81
2022/10/31 06:03:33;;;;;;;;;;;;;;;20.19;40.31;99197.69;4947074;28;20393;-80
2022/10/31 06:05:59;;;;;;;;;;;;;;;20.32;39.71;99198.00;4963396;28;19926;-81
2022/10/31 06:08:24;;;;;;;;;;;;;;;20.47;39.09;99200.78;4943583;29;19926;-79
2022/10/31 06:10:49;;;;;;;;;;;;;;;20.60;38.61;99206.38;4935463;28;19918;-82
2022/10/31 06:13:15;;;;;;;;;;;;;;;20.68;38.33;99208.19;4949348;28;20008;-84
2022/10/31 06:15:41;;;;;;;;;;;;;;;20.76;37.88;99213.50;4963792;28;19957;-79
2022/10/31 06:18:06;;;;;;;;;;;;;;;20.91;37.86;99218.91;4964522;28;19918;-84
2022/10/31 06:20:32;;;;;;;;;;;;;;;21.63;36.50;99222.34;4965141;28;19929;-84
2022/10/31 06:22:57;;;;;;;;;;;;;;;22.64;34.84;99228.31;4963868;28;19929;-83
2022/10/31 06:25:23;;;;;;;;;;;;;;;23.75;33.33;99232.72;4964966;28;19918;-84
2022/10/31 06:27:48;;;;;;;;;;;;;;;23.97;32.02;99237.06;4964451;28;19919;-83
2022/10/31 06:30:13;;;;;;;;;;;;;;;26.21;28.61;99226.13;4963610;28;20621;-81
2022/10/31 06:32:39;;;;;;;;;;;;;;;27.10;27.32;99221.19;4966031;28;19922;-81
2022/10/31 06:35:04;;;;;;;;;;;;;;;28.97;24.46;99230.50;4947707;28;19968;-90
2022/10/31 06:37:30;;;;;;;;;;;;;;;29.79;23.19;99219.28;4975147;28;19933;-88
2022/10/31 06:39:55;;;;;;;;;;;;;;;31.28;21.64;99222.59;4977180;28;19934;-87
2022/10/31 06:42:22;;;;;;;;;;;;;;;32.64;21.40;99228.06;4976818;28;19918;-86
2022/10/31 06:44:47;;;;;;;;;;;;;;;33.26;21.40;99235.03;4967355;28;19946;-84
2022/10/31 06:47:13;;;;;;;;;;;;;;;33.46;21.88;99229.03;4974434;28;19919;-91
2022/10/31 06:49:38;;;;;;;;;;;;;;;32.96;21.22;99244.41;4969820;28;19922;-86
2022/10/31 06:52:04;;;;;;;;;;;;;;;33.21;21.47;99236.88;4949106;28;19919;-89
2022/10/31 06:54:29;;;;;;;;;;;;;;;33.05;20.41;99241.25;4967825;28;19961;-84
2022/10/31 06:56:55;;;;;;;;;;;;;;;32.81;19.62;99245.06;4963898;28;19957;-81
2022/10/31 06:59:20;;;;;;;;;;;;;;;32.75;19.86;99243.34;4966617;28;19946;-84
2022/10/31 07:01:46;;;;;;;;;;;;;;;32.72;19.79;99232.19;4967460;28;19918;-89
2022/10/31 07:04:12;;;;;;;;;;;;;;;32.75;19.40;99237.94;4965660;28;20428;-77
2022/10/31 07:06:38;;;;;;;;;;;;;;;32.85;19.62;99236.44;4964558;28;19922;-75
2022/10/31 07:09:03;;;;;;;;;;;;;;;32.97;20.61;99237.09;4980456;28;19925;-89
2022/10/31 07:11:28;;;;;;;;;;;;;;;33.11;20.84;99234.84;4964420;28;19918;-84
2022/10/31 07:13:54;;;;;;;;;;;;;;;33.14;21.51;99232.44;4965641;28;20453;-85
2022/10/31 07:16:19;;;;;;;;;;;;;;;33.14;21.46;99235.16;4964581;28;19919;-82
2022/10/31 07:18:44;;;;;;;;;;;;;;;32.84;23.03;99234.78;4965352;28;19918;-86
2022/10/31 07:21:11;;;;;;;;;;;;;;;32.58;23.95;99240.66;4967591;28;19949;-82
2022/10/31 07:23:37;;;;;;;;;;;;;;;32.84;23.17;99234.78;4964167;28;19944;-87
2022/10/31 07:26:03;;;;;;;;;;;;;;;33.04;22.13;99223.41;4964916;28;20421;-88
2022/10/31 07:28:30;;;;;;;;;;;;;;;33.30;22.46;99219.13;4970587;28;19929;-88
2022/10/31 07:30:57;;;;;;;;;;;;;;;33.80;20.82;99228.00;4963251;28;19964;-77
2022/10/31 07:33:22;;;;;;;;;;;;;;;34.07;21.36;99227.94;4962819;28;20686;-81
2022/10/31 07:35:47;;;;;;;;;;;;;;;34.35;21.16;99229.50;4964562;28;19926;-81
2022/10/31 07:38:13;;;;;;;;;;;;;;;34.71;21.19;99224.28;4962636;28;19977;-82
2022/10/31 07:40:39;;;;;;;;;;;;;;;35.06;20.50;99227.41;4964569;28;19918;-82
2022/10/31 07:43:04;;;;;;;;;;;;;;;35.48;20.86;99231.88;4963439;28;19926;-83
2022/10/31 07:45:30;;;;;;;;;;;;;;;35.91;19.91;99232.47;4966172;28;19918;-86
2022/10/31 07:47:55;;;;;;;;;;;;;;;36.30;19.07;99236.53;4948679;28;20524;-80
2022/10/31 07:50:21;;;;;;;;;;;;;;;36.63;19.26;99248.69;4962146;28;20313;-81
2022/10/31 07:52:46;;;;;;;;;;;;;;;36.87;18.73;99240.72;4963094;28;19953;-80
2022/10/31 07:55:12;;;;;;;;;;;;;;;37.06;17.99;99238.19;4963528;28;19922;-80
2022/10/31 07:57:37;;;;;;;;;;;;;;;37.23;17.77;99247.94;4961760;28;19923;-81
2022/10/31 08:00:09;;;;;;;;;;;;;;;37.20;17.62;99243.84;4964804;28;20313;-82
2022/10/31 08:02:34;;;;;;;;;;;;;;;37.34;17.32;99245.94;4963537;28;19926;-81
2022/10/31 08:05:01;;;;;;;;;;;;;;;37.33;16.84;99242.41;4961583;28;19919;-80
2022/10/31 08:07:26;;;;;;;;;;;;;;;37.31;16.74;99236.44;4962723;28;19961;-80
2022/10/31 08:09:52;;;;;;;;;;;;;;;36.51;17.13;99235.38;4963879;28;20449;-82
2022/10/31 08:12:17;;;;;;;;;;;;;;;36.10;17.53;99243.59;4961047;28;19930;-81
2022/10/31 08:14:44;;;;;;;;;;;;;;;36.52;17.12;99242.47;4963210;28;20460;-80
2022/10/31 08:17:09;;;;;;;;;;;;;;;36.73;17.24;99239.69;4962098;28;20345;-82
2022/10/31 08:19:34;;;;;;;;;;;;;;;36.86;16.83;99241.00;4961483;28;19918;-81
2022/10/31 08:22:00;;;;;;;;;;;;;;;37.00;16.93;99238.50;4963400;28;19926;-81
2022/10/31 08:24:25;;;;;;;;;;;;;;;37.12;16.54;99244.44;4961309;28;19919;-81
2022/10/31 08:26:50;;;;;;;;;;;;;;;37.28;16.42;99242.47;4961876;28;19918;-82
2022/10/31 08:29:16;;;;;;;;;;;;;;;37.50;16.55;99236.59;4962790;28;19918;-81
2022/10/31 08:31:41;;;;;;;;;;;;;;;37.59;16.69;99245.78;4977614;28;19978;-81
2022/10/31 08:34:07;;;;;;;;;;;;;;;37.76;16.16;99247.31;4978198;28;19953;-81
2022/10/31 08:36:32;;;;;;;;;;;;;;;37.87;16.05;99234.44;4962964;28;20629;-81
2022/10/31 08:38:58;;;;;;;;;;;;;;;37.97;15.92;99237.06;4962050;28;20370;-83
2022/10/31 08:41:27;;;;;;;;;;;;;;;38.03;15.68;99238.63;4979306;28;19922;-80
2022/10/31 08:43:52;;;;;;;;;;;;;;;38.08;15.50;99244.06;4964646;28;19919;-80
2022/10/31 08:46:18;;;;;;;;;;;;;;;38.11;15.29;99240.75;4961898;28;19926;-81
2022/10/31 08:48:43;;;;;;;;;;;;;;;38.16;15.42;99232.56;4965157;28;19923;-81
2022/10/31 08:51:08;;;;;;;;;;;;;;;38.35;14.98;99238.09;4961876;28;19924;-81
2022/10/31 08:53:34;;;;;;;;;;;;;;;38.54;15.09;99243.59;4962840;28;20030;-82
2022/10/31 08:55:59;;;;;;;;;;;;;;;38.82;14.68;99241.09;4960783;28;20013;-81
2022/10/31 08:58:24;;;;;;;;;;;;;;;39.45;14.48;99245.44;4978403;28;20412;-81
2022/10/31 09:00:51;;;;;;;;;;;;;;;40.49;13.59;99244.56;4962144;28;19918;-80
2022/10/31 09:03:23;;;;;;;;;;;;;;;41.80;12.56;99251.34;4960492;28;19922;-80
2022/10/31 09:05:49;;;;;;;;;;;;;;;42.99;11.44;99254.47;4977854;28;20004;-82
2022/10/31 09:08:14;;;;;;;;;;;;;;;43.62;10.96;99244.00;4962431;28;20009;-82
2022/10/31 09:10:40;;;;;;;;;;;;;;;43.70;10.79;99243.16;4960691;28;20416;-80
2022/10/31 09:13:09;;;;;;;;;;;;;;;43.37;11.19;99243.66;4961010;28;19922;-79
2022/10/31 09:15:35;;;;;;;;;;;;;;;42.56;11.64;99242.22;4974127;28;19968;-82
2022/10/31 09:18:00;;;;;;;;;;;;;;;41.89;11.82;99234.94;4963449;28;19946;-80
2022/10/31 09:20:26;;;;;;;;;;;;;;;41.31;12.48;99242.06;4970490;28;19925;-82
2022/10/31 09:22:58;;;;;;;;;;;;;;;40.89;12.81;99239.41;4964064;28;19918;-81
2022/10/31 09:25:23;;;;;;;;;;;;;;;40.56;12.89;99241.44;4962887;28;20712;-83
2022/10/31 09:27:48;;;;;;;;;;;;;;;40.42;13.25;99239.53;4965848;28;19918;-80
2022/10/31 09:30:14;;;;;;;;;;;;;;;40.25;12.91;99236.50;4966390;28;19918;-83
2022/10/31 09:32:39;;;;;;;;;;;;;;;40.12;13.11;99238.13;4964695;28;19919;-79
2022/10/31 09:35:05;;;;;;;;;;;;;;;40.12;13.13;99235.38;4966005;28;19969;-79
2022/10/31 09:37:30;;;;;;;;;;;;;;;40.04;13.33;99234.16;4963604;28;19928;-80
2022/10/31 09:39:55;;;;;;;;;;;;;;;39.94;13.41;99228.84;4965025;28;20364;-81
2022/10/31 09:42:21;;;;;;;;;;;;;;;39.82;13.36;99233.97;4949876;28;19954;-80
2022/10/31 09:44:49;;;;;;;;;;;;;;;39.65;13.35;99231.78;4980490;28;20314;-79
2022/10/31 09:47:22;;;;;;;;;;;;;;;39.49;13.57;99231.19;4980356;28;19922;-80
2022/10/31 09:50:08;;;;;;;;;;;;;;;39.38;13.58;99230.56;4948857;28;19927;-78
2022/10/31 09:52:34;;;;;;;;;;;;;;;39.17;13.76;99227.31;4943280;29;19923;-81
2022/10/31 09:54:59;;;;;;;;;;;;;;;39.12;13.54;99224.66;4927911;29;19950;-83
2022/10/31 09:57:28;;;;;;;;;;;;;;;38.94;14.06;99226.25;4944961;29;19954;-80
2022/10/31 09:59:54;;;;;;;;;;;;;;;38.81;14.00;99222.28;4937431;29;19966;-80
2022/10/31 10:02:29;;;;;;;;;;;;;;;38.71;14.08;99229.53;4927848;29;19977;-80
2022/10/31 10:04:54;;;;;;;;;;;;;;;38.52;14.23;99223.16;4930557;29;19922;-80
2022/10/31 10:07:34;;;;;;;;;;;;;;;38.39;14.66;99218.44;4927773;29;19926;-82
2022/10/31 10:10:00;;;;;;;;;;;;;;;38.22;14.32;99222.41;4943707;29;19922;-79
2022/10/31 10:12:25;;;;;;;;;;;;;;;37.68;15.08;99217.94;4927658;29;19919;-80
2022/10/31 10:14:54;;;;;;;;;;;;;;;37.62;14.89;99222.59;4944916;29;19919;-82
2022/10/31 10:17:22;;;;;;;;;;;;;;;37.55;15.02;99217.50;4937351;29;19925;-81
2022/10/31 10:19:50;;;;;;;;;;;;;;;37.42;15.37;99215.44;4944299;29;19925;-80
2022/10/31 10:22:35;;;;;;;;;;;;;;;37.36;15.51;99211.09;4943572;29;19925;-79
2022/10/31 10:25:01;;;;;;;;;;;;;;;37.27;15.39;99217.16;4936930;29;19961;-80
2022/10/31 10:27:44;;;;;;;;;;;;;;;37.18;15.75;99204.38;4942177;29;19958;-79
2022/10/31 10:30:17;;;;;;;;;;;;;;;37.09;15.85;99209.59;4956763;28;19918;-81
2022/10/31 10:32:51;;;;;;;;;;;;;;;36.96;16.14;99202.88;4945248;28;19919;-79
2022/10/31 10:35:16;;;;;;;;;;;;;;;36.70;16.06;99200.22;4962884;28;20921;-81
2022/10/31 10:37:42;;;;;;;;;;;;;;;36.41;16.39;99194.66;4944731;28;19923;-79
2022/10/31 10:40:11;;;;;;;;;;;;;;;36.44;16.32;99182.41;4948404;28;19922;-79
2022/10/31 10:48:12;;;;;;;;;;;;;;;36.27;16.75;99180.81;4964612;28;20380;-80
2022/10/31 10:50:39;;;;;;;;;;;;;;;35.95;17.09;99186.56;4947102;28;19927;-78
2022/10/31 10:53:06;;;;;;;;;;;;;;;35.90;17.12;99190.13;4964247;28;19922;-80
2022/10/31 10:55:37;;;;;;;;;;;;;;;35.69;17.13;99178.41;4963979;28;19925;-80
2022/10/31 10:58:03;;;;;;;;;;;;;;;35.29;17.27;99178.13;4961635;28;19925;-80
2022/10/31 11:00:28;;;;;;;;;;;;;;;35.05;17.66;99196.75;4947919;28;19960;-80
2022/10/31 11:02:53;;;;;;;;;;;;;;;35.18;17.67;99191.91;4964274;28;20410;-79
2022/10/31 11:05:37;;;;;;;;;;;;;;;34.88;17.74;99190.75;4964246;28;19919;-80
2022/10/31 11:08:03;;;;;;;;;;;;;;;34.45;18.30;99185.41;4958043;28;20409;-79
2022/10/31 11:10:28;;;;;;;;;;;;;;;34.22;18.74;99184.72;4947287;28;19961;-80
2022/10/31 11:13:12;;;;;;;;;;;;;;;34.23;18.75;99178.22;4956253;28;19925;-80
2022/10/31 11:15:40;;;;;;;;;;;;;;;34.10;19.01;99180.56;4963575;28;19992;-80
2022/10/31 11:18:05;;;;;;;;;;;;;;;33.96;18.68;99170.19;4938958;28;19924;-79
2022/10/31 11:20:32;;;;;;;;;;;;;;;33.85;19.05;99168.47;4947779;28;19918;-79
2022/10/31 11:23:04;;;;;;;;;;;;;;;33.53;19.28;99163.88;4940364;28;19934;-80
2022/10/31 11:25:30;;;;;;;;;;;;;;;33.51;19.26;99168.72;4939649;28;19961;-79
2022/10/31 11:28:13;;;;;;;;;;;;;;;33.44;19.53;99168.13;4946475;28;19968;-78
2022/10/31 11:30:49;;;;;;;;;;;;;;;33.36;19.44;99153.16;4947826;28;19953;-81
2022/10/31 11:33:28;;;;;;;;;;;;;;;33.30;19.93;99160.41;4955870;28;20382;-79
2022/10/31 11:35:53;;;;;;;;;;;;;;;33.23;19.87;99153.59;4948751;28;19930;-80
2022/10/31 11:38:23;;;;;;;;;;;;;;;33.18;19.91;99155.16;4961877;28;19977;-80
2022/10/31 11:40:59;;;;;;;;;;;;;;;33.14;19.73;99147.78;4963415;28;19923;-79
2022/10/31 11:43:25;;;;;;;;;;;;;;;33.06;19.91;99150.97;4960491;28;19922;-79
2022/10/31 11:45:50;;;;;;;;;;;;;;;32.87;20.37;99147.78;4963146;28;20321;-80
2022/10/31 11:48:16;;;;;;;;;;;;;;;32.65;20.32;99151.31;4960676;28;19925;-82
2022/10/31 11:50:42;;;;;;;;;;;;;;;32.51;20.44;99152.72;4959428;28;20009;-80
2022/10/31 11:53:17;;;;;;;;;;;;;;;32.34;20.65;99155.47;4963394;28;20401;-79
2022/10/31 11:55:42;;;;;;;;;;;;;;;32.13;20.67;99154.38;4965381;28;19987;-79
2022/10/31 11:58:37;;;;;;;;;;;;;;;32.05;20.81;99158.28;4968180;28;19956;-79
2022/10/31 12:01:02;;;;;;;;;;;;;;;31.97;20.67;99150.63;4917088;29;19920;-80
2022/10/31 12:03:28;;;;;;;;;;;;;;;31.91;20.62;99155.94;4888969;29;19991;-79
2022/10/31 12:05:55;;;;;;;;;;;;;;;31.76;20.70;99152.22;4905082;29;19963;-80
2022/10/31 12:08:20;;;;;;;;;;;;;;;31.61;20.26;99160.84;4887753;29;19920;-79
2022/10/31 12:10:51;;;;;;;;;;;;;;;31.45;20.71;99149.78;4889098;29;19919;-81
2022/10/31 12:13:32;;;;;;;;;;;;;;;31.34;20.96;99143.41;4905385;29;19927;-81
2022/10/31 12:16:01;;;;;;;;;;;;;;;31.24;20.79;99151.31;4899560;29;20076;-80
2022/10/31 12:18:35;;;;;;;;;;;;;;;31.09;21.27;99151.88;4904635;29;19974;-79
2022/10/31 12:21:16;;;;;;;;;;;;;;;30.98;21.23;99152.72;4905322;29;19919;-79
2022/10/31 12:23:44;;;;;;;;;;;;;;;30.78;21.09;99151.22;4889734;29;19925;-80
2022/10/31 12:26:30;;;;;;;;;;;;;;;30.72;21.73;99146.78;4888852;29;19923;-80
2022/10/31 12:28:55;;;;;;;;;;;;;;;30.62;21.73;99150.09;4900731;29;19923;-81
2022/10/31 12:31:20;;;;;;;;;;;;;;;30.50;22.15;99138.53;4887129;29;19925;-79
2022/10/31 12:33:46;;;;;;;;;;;;;;;30.39;21.78;99140.19;4904472;29;19919;-81
2022/10/31 12:36:23;;;;;;;;;;;;;;;30.27;22.16;99153.66;4903850;29;19964;-80
2022/10/31 12:39:02;;;;;;;;;;;;;;;30.18;22.59;99148.88;4961971;28;19961;-80
2022/10/31 12:41:36;;;;;;;;;;;;;;;30.08;22.23;99149.47;4959637;28;19919;-79
2022/10/31 12:44:06;;;;;;;;;;;;;;;29.95;22.56;99142.44;4977336;28;19925;-78
2022/10/31 12:46:37;;;;;;;;;;;;;;;29.84;22.64;99144.09;4961779;28;19918;-82
2022/10/31 12:49:35;;;;;;;;;;;;;;;29.74;22.85;99147.31;4958497;28;19918;-79
2022/10/31 12:52:23;;;;;;;;;;;;;;;29.59;22.97;99147.75;4942746;29;20421;-79
2022/10/31 12:54:56;;;;;;;;;;;;;;;29.42;22.92;99146.78;4901380;29;19979;-79
2022/10/31 12:57:23;;;;;;;;;;;;;;;29.33;23.02;99146.28;4901239;29;20399;-79